createdAt,value
2022-11-20T00:00:24.225Z,15.00
2022-11-20T00:02:53.146Z,14.10
2022-11-20T00:05:22.114Z,14.43
2022-11-20T00:07:51.073Z,15.70
2022-11-20T00:10:21.170Z,13.97
2022-11-20T00:12:50.227Z,13.63
2022-11-20T00:15:19.088Z,14.43
2022-11-20T00:17:47.778Z,13.93
2022-11-20T00:20:17.261Z,12.30
2022-11-20T00:22:46.075Z,14.23
2022-11-20T00:25:14.846Z,11.27
2022-11-20T00:27:45.382Z,14.17
2022-11-20T00:30:15.165Z,11.33
2022-11-20T00:32:43.997Z,11.00
2022-11-20T00:35:13.035Z,14.50
2022-11-20T00:37:41.624Z,12.53
2022-11-20T00:40:14.021Z,12.30
2022-11-20T00:42:44.185Z,13.47
2022-11-20T00:45:13.052Z,13.57
2022-11-20T00:47:41.510Z,15.17
2022-11-20T00:50:10.812Z,13.20
2022-11-20T00:52:39.189Z,12.73
2022-11-20T00:55:08.633Z,11.90
2022-11-20T00:57:37.680Z,13.00
2022-11-20T01:00:10.132Z,13.17
2022-11-20T01:02:40.998Z,12.47
2022-11-20T01:05:09.832Z,10.00
2022-11-20T01:07:38.267Z,11.87
2022-11-20T01:10:10.030Z,12.30
2022-11-20T01:12:40.545Z,12.47
2022-11-20T01:15:11.561Z,12.83
2022-11-20T01:17:40.167Z,13.33
2022-11-20T01:20:10.537Z,14.00
2022-11-20T01:22:39.196Z,12.27
2022-11-20T01:25:14.383Z,10.83
2022-11-20T01:27:42.933Z,11.63
2022-11-20T01:30:15.060Z,12.43
2022-11-20T01:32:43.717Z,12.67
2022-11-20T01:35:12.229Z,10.53
2022-11-20T01:37:43.151Z,10.40
2022-11-20T01:40:15.050Z,12.50
2022-11-20T01:43:07.097Z,10.87
2022-11-20T01:46:00.428Z,12.00
2022-11-20T01:48:34.340Z,12.33
2022-11-20T01:51:04.368Z,11.50
2022-11-20T01:53:38.481Z,11.10
2022-11-20T01:56:12.036Z,11.83
2022-11-20T01:58:44.515Z,10.30
2022-11-20T02:01:15.775Z,9.03
2022-11-20T02:03:45.366Z,12.77
2022-11-20T02:06:19.759Z,9.83
2022-11-20T02:08:48.188Z,12.57
2022-11-20T02:11:16.513Z,11.33
2022-11-20T02:13:46.547Z,11.17
2022-11-20T02:16:21.562Z,10.83
2022-11-20T02:18:50.574Z,11.70
2022-11-20T02:21:32.192Z,11.10
2022-11-20T02:24:09.533Z,10.13
2022-11-20T02:26:48.578Z,11.10
2022-11-20T02:29:21.951Z,8.60
2022-11-20T02:31:50.713Z,10.27
2022-11-20T02:34:19.206Z,12.50
2022-11-20T02:36:49.748Z,11.20
2022-11-20T02:39:21.981Z,10.90
2022-11-20T02:41:50.826Z,12.57
2022-11-20T02:44:19.518Z,10.27
2022-11-20T02:46:48.048Z,9.97
2022-11-20T02:49:17.546Z,10.13
2022-11-20T02:51:45.930Z,9.17
2022-11-20T02:54:14.482Z,12.90
2022-11-20T02:56:44.499Z,8.77
2022-11-20T02:59:13.100Z,9.20
2022-11-20T03:01:41.716Z,11.00
2022-11-20T03:04:10.333Z,12.00
2022-11-20T03:06:39.541Z,9.47
2022-11-20T03:09:11.693Z,10.20
2022-11-20T03:11:40.361Z,10.90
2022-11-20T03:14:10.389Z,9.20
2022-11-20T03:16:41.320Z,13.63
2022-11-20T03:19:10.042Z,11.27
2022-11-20T03:21:38.793Z,9.77
2022-11-20T03:24:10.963Z,11.50
2022-11-20T03:26:40.701Z,10.40
2022-11-20T03:29:10.836Z,10.43
2022-11-20T03:31:41.952Z,11.30
2022-11-20T03:34:12.534Z,9.23
2022-11-20T03:36:41.853Z,11.17
2022-11-20T03:39:10.919Z,9.17
2022-11-20T03:41:41.746Z,9.03
2022-11-20T03:44:14.672Z,9.73
2022-11-20T03:46:43.395Z,7.97
2022-11-20T03:49:11.971Z,11.07
2022-11-20T03:51:41.004Z,8.87
2022-11-20T03:54:11.173Z,8.60
2022-11-20T03:56:44.051Z,10.13
2022-11-20T03:59:14.223Z,7.20
2022-11-20T04:01:45.477Z,10.57
2022-11-20T04:04:17.769Z,8.17
2022-11-20T04:06:46.208Z,8.57
2022-11-20T04:09:16.850Z,10.00
2022-11-20T04:11:45.429Z,12.87
2022-11-20T04:14:17.412Z,9.43
2022-11-20T04:16:46.061Z,11.23
2022-11-20T04:19:16.023Z,11.90
2022-11-20T04:21:45.520Z,14.27
2022-11-20T04:24:14.067Z,9.37
2022-11-20T04:26:42.992Z,9.77
2022-11-20T04:29:13.439Z,12.77
2022-11-20T04:31:43.585Z,9.33
2022-11-20T04:34:13.981Z,11.00
2022-11-20T04:36:43.498Z,10.23
2022-11-20T04:39:15.693Z,12.13
2022-11-20T04:41:44.367Z,11.13
2022-11-20T04:44:13.113Z,12.07
2022-11-20T04:46:44.315Z,11.17
2022-11-20T04:49:13.774Z,10.77
2022-11-20T04:51:42.220Z,12.07
2022-11-20T04:54:12.643Z,10.30
2022-11-20T04:56:41.370Z,10.97
2022-11-20T04:59:10.029Z,12.27
2022-11-20T05:01:38.882Z,12.30
2022-11-20T05:04:08.933Z,10.40
2022-11-20T05:06:37.890Z,14.50
2022-11-20T05:09:09.099Z,9.83
2022-11-20T05:11:37.753Z,10.33
2022-11-20T05:14:06.548Z,11.27
2022-11-20T05:16:37.374Z,13.17
2022-11-20T05:19:05.918Z,11.77
2022-11-20T05:21:35.872Z,11.87
2022-11-20T05:24:05.608Z,10.00
2022-11-20T05:26:34.119Z,11.97
2022-11-20T05:29:02.554Z,12.97
2022-11-20T05:31:31.080Z,14.13
2022-11-20T05:33:59.860Z,12.87
2022-11-20T05:36:28.385Z,12.57
2022-11-20T05:39:01.487Z,12.93
2022-11-20T05:41:30.261Z,13.47
2022-11-20T05:44:01.502Z,12.67
2022-11-20T05:46:30.006Z,12.40
2022-11-20T05:48:59.588Z,11.03
2022-11-20T05:51:28.752Z,8.40
2022-11-20T05:54:00.132Z,14.73
2022-11-20T05:56:28.624Z,22.67
2022-11-20T05:58:58.864Z,21.20
2022-11-20T06:01:28.290Z,11.80
2022-11-20T06:03:57.158Z,6.63
2022-11-20T06:06:26.285Z,5.93
2022-11-20T06:08:55.055Z,6.67
2022-11-20T06:11:25.268Z,11.03
2022-11-20T06:13:54.138Z,8.13
2022-11-20T06:16:22.941Z,6.67
2022-11-20T06:18:51.523Z,6.07
2022-11-20T06:21:21.550Z,4.70
2022-11-20T06:23:50.828Z,4.27
2022-11-20T06:26:21.132Z,4.73
2022-11-20T06:28:51.935Z,3.83
2022-11-20T06:31:22.681Z,2.80
2022-11-20T06:33:51.890Z,3.50
2022-11-20T06:36:23.278Z,3.43
2022-11-20T06:38:52.231Z,3.87
2022-11-20T06:41:22.538Z,4.87
2022-11-20T06:43:52.965Z,5.23
2022-11-20T22:32:23.353Z,17.30
2022-11-20T22:34:52.328Z,13.90
2022-11-20T22:37:20.999Z,17.40
2022-11-20T22:39:50.105Z,28.10
2022-11-20T22:42:18.911Z,34.10
2022-11-20T22:44:49.231Z,27.60
2022-11-20T22:47:17.978Z,25.43
2022-11-20T22:49:48.070Z,23.90
2022-11-20T22:52:16.739Z,21.87
2022-11-20T22:54:45.394Z,24.37
2022-11-20T22:57:13.981Z,25.40
2022-11-20T22:59:42.766Z,30.33
2022-11-20T23:02:11.426Z,26.97
2022-11-20T23:04:39.977Z,23.17
2022-11-20T23:07:10.012Z,27.70
2022-11-20T23:09:38.827Z,24.80
2022-11-20T23:12:08.083Z,32.57
2022-11-20T23:14:36.738Z,31.03
2022-11-20T23:17:05.321Z,32.40
2022-11-20T23:19:33.804Z,37.87
2022-11-20T23:22:02.335Z,32.13
2022-11-20T23:24:32.343Z,29.00
2022-11-20T23:27:00.952Z,18.77
2022-11-20T23:29:29.598Z,17.83
2022-11-20T23:31:58.376Z,18.30
2022-11-20T23:34:27.066Z,16.13
2022-11-20T23:36:55.777Z,15.30
2022-11-20T23:39:24.378Z,17.27
2022-11-20T23:41:54.336Z,16.23
2022-11-20T23:44:23.589Z,18.37
2022-11-20T23:46:52.221Z,14.87
2022-11-20T23:49:20.862Z,17.00
2022-11-20T23:51:49.551Z,15.20
2022-11-20T23:54:18.146Z,14.97
2022-11-20T23:56:46.841Z,15.87
2022-11-20T23:59:16.952Z,14.90
